createdAt,value
2023-01-17T00:00:35.013Z,3.50
2023-01-17T00:03:01.783Z,2.70
2023-01-17T00:05:47.488Z,3.40
2023-01-17T00:08:32.970Z,3.50
2023-01-17T00:10:59.757Z,3.50
2023-01-17T00:13:27.187Z,3.30
2023-01-17T00:15:53.878Z,3.10
2023-01-17T00:18:20.543Z,4.40
2023-01-17T00:21:06.130Z,3.80
2023-01-17T00:23:51.745Z,3.70
2023-01-17T00:26:19.146Z,4.30
2023-01-17T00:28:47.246Z,3.20
2023-01-17T00:31:14.904Z,4.00
2023-01-17T00:33:41.659Z,4.30
2023-01-17T00:36:08.768Z,3.40
2023-01-17T00:38:36.608Z,4.00
2023-01-17T00:41:11.290Z,3.80
2023-01-17T00:52:13.955Z,3.50
2023-01-17T00:54:59.532Z,4.70
2023-01-17T00:57:45.093Z,3.00
2023-01-17T01:00:31.247Z,4.20
2023-01-17T01:03:16.776Z,4.30
2023-01-17T01:06:02.523Z,3.80
2023-01-17T01:08:48.221Z,3.80
2023-01-17T01:11:38.313Z,3.60
2023-01-17T01:14:24.854Z,3.60
2023-01-17T01:17:10.504Z,4.70
2023-01-17T01:19:55.960Z,4.60
2023-01-17T01:22:41.477Z,3.70
2023-01-17T01:25:27.508Z,5.10
2023-01-17T01:28:21.592Z,4.10
2023-01-17T01:31:07.145Z,5.70
2023-01-17T01:33:33.842Z,5.30
2023-01-17T01:36:00.543Z,4.40
2023-01-17T01:38:27.237Z,4.90
2023-01-17T01:40:55.439Z,4.90
2023-01-17T01:43:39.199Z,5.10
2023-01-17T01:46:06.003Z,4.00
2023-01-17T01:48:35.612Z,4.90
2023-01-17T01:51:10.530Z,5.00
2023-01-17T01:53:38.493Z,5.90
2023-01-17T01:56:06.022Z,3.90
2023-01-17T01:58:33.567Z,5.20
2023-01-17T02:01:00.478Z,4.40
2023-01-17T02:03:29.567Z,5.40
2023-01-17T02:05:57.177Z,5.40
2023-01-17T02:08:23.867Z,5.80
2023-01-17T02:10:50.530Z,5.50
2023-01-17T02:13:17.932Z,5.00
2023-01-17T02:16:09.190Z,5.50
2023-01-17T02:19:13.293Z,5.80
2023-01-17T02:21:47.354Z,5.30
2023-01-17T02:24:58.919Z,5.70
2023-01-17T02:27:34.570Z,4.90
2023-01-17T02:30:23.412Z,6.20
2023-01-17T02:33:13.685Z,5.40
2023-01-17T02:35:48.989Z,5.50
2023-01-17T02:38:34.128Z,5.50
2023-01-17T02:43:29.955Z,4.80
2023-01-17T02:45:56.668Z,4.90
2023-01-17T02:48:24.728Z,4.70
2023-01-17T02:51:03.011Z,5.20
2023-01-17T02:53:49.994Z,5.50
2023-01-17T02:56:44.717Z,5.10
2023-01-17T02:59:26.609Z,5.70
2023-01-17T03:02:10.137Z,5.30
2023-01-17T03:04:42.947Z,4.20
2023-01-17T03:07:11.870Z,5.40
2023-01-17T03:09:38.647Z,4.40
2023-01-17T03:12:05.711Z,4.00
2023-01-17T03:14:32.425Z,4.90
2023-01-17T03:16:59.113Z,5.00
2023-01-17T03:19:25.870Z,5.10
2023-01-17T03:21:52.575Z,5.00
2023-01-17T03:24:19.368Z,5.00
2023-01-17T03:26:47.903Z,5.30
2023-01-17T03:29:16.486Z,5.30
2023-01-17T03:31:43.204Z,4.20
2023-01-17T03:34:09.954Z,4.70
2023-01-17T03:36:36.684Z,3.90
2023-01-17T03:39:03.491Z,4.80
2023-01-17T03:41:30.218Z,4.50
2023-01-17T03:43:56.920Z,4.50
2023-01-17T03:46:24.987Z,5.10
2023-01-17T03:48:52.117Z,4.80
2023-01-17T03:51:19.004Z,4.60
2023-01-17T03:53:47.088Z,4.90
2023-01-17T03:56:14.359Z,4.20
2023-01-17T03:58:41.580Z,4.90
2023-01-17T04:03:12.429Z,4.10
2023-01-17T04:05:39.139Z,5.50
2023-01-17T04:08:07.266Z,5.50
2023-01-17T04:10:34.045Z,5.30
2023-01-17T04:13:00.771Z,5.40
2023-01-17T04:15:27.438Z,5.90
2023-01-17T04:17:54.943Z,6.80
2023-01-17T04:20:33.542Z,6.50
2023-01-17T04:23:00.372Z,6.30
2023-01-17T04:25:27.469Z,4.90
2023-01-17T04:27:54.168Z,6.20
2023-01-17T04:30:21.167Z,6.90
2023-01-17T04:32:47.888Z,8.10
2023-01-17T04:35:14.643Z,9.00
2023-01-17T04:37:41.323Z,7.00
2023-01-17T04:40:08.921Z,6.80
2023-01-17T04:42:35.582Z,7.00
2023-01-17T04:45:02.324Z,7.70
2023-01-17T04:47:29.031Z,6.60
2023-01-17T04:49:55.749Z,9.10
2023-01-17T04:52:22.620Z,9.30
2023-01-17T04:54:49.610Z,6.50
2023-01-17T04:57:19.769Z,7.60
2023-01-17T04:59:46.751Z,7.80
2023-01-17T05:02:13.981Z,7.80
2023-01-17T05:04:40.927Z,7.50
2023-01-17T05:07:07.639Z,8.20
2023-01-17T05:09:34.317Z,7.50
2023-01-17T05:12:01.021Z,8.50
2023-01-17T05:14:27.798Z,8.70
2023-01-17T05:16:55.589Z,8.10
2023-01-17T05:19:26.132Z,9.10
2023-01-17T05:21:52.873Z,6.90
2023-01-17T05:24:19.705Z,8.50
2023-01-17T05:26:54.797Z,9.40
2023-01-17T05:29:21.870Z,9.50
2023-01-17T05:31:48.755Z,9.80
2023-01-17T05:34:15.458Z,9.80
2023-01-17T05:36:42.130Z,10.70
2023-01-17T05:39:12.616Z,9.10
2023-01-17T05:41:40.588Z,9.70
2023-01-17T05:44:07.504Z,10.70
2023-01-17T05:46:34.269Z,9.90
2023-01-17T05:49:01.082Z,9.50
2023-01-17T05:51:29.374Z,9.70
2023-01-17T05:53:56.047Z,8.70
2023-01-17T05:56:22.853Z,10.00
2023-01-17T05:58:49.568Z,10.90
2023-01-17T06:01:17.732Z,12.00
2023-01-17T06:03:44.479Z,13.50
2023-01-17T06:06:11.134Z,12.00
2023-01-17T06:08:37.773Z,11.20
2023-01-17T06:11:04.492Z,12.70
2023-01-17T06:13:31.218Z,12.60
2023-01-17T06:16:02.936Z,11.30
2023-01-17T06:18:30.524Z,11.70
2023-01-17T06:20:57.298Z,12.20
2023-01-17T06:23:24.949Z,12.40
2023-01-17T06:25:51.682Z,11.40
2023-01-17T06:28:20.271Z,12.00
2023-01-17T06:30:47.282Z,12.10
2023-01-17T06:33:14.077Z,12.50
2023-01-17T06:35:46.809Z,11.60
2023-01-17T06:38:13.477Z,11.70
2023-01-17T06:40:40.148Z,12.30
2023-01-17T06:43:06.990Z,12.50
2023-01-17T06:45:34.309Z,11.50
2023-01-17T06:48:01.909Z,11.20
2023-01-17T06:50:28.599Z,11.80
2023-01-17T06:52:59.855Z,11.70
2023-01-17T06:55:30.539Z,11.70
2023-01-17T06:57:58.558Z,11.20
2023-01-17T07:00:26.264Z,12.30
2023-01-17T07:02:53.020Z,9.70
2023-01-17T07:05:19.763Z,12.50
2023-01-17T07:07:46.512Z,12.50
2023-01-17T07:10:13.781Z,12.10
2023-01-17T07:12:40.524Z,11.30
2023-01-17T07:15:07.901Z,11.40
2023-01-17T07:17:35.038Z,12.30
2023-01-17T07:20:01.789Z,11.90
2023-01-17T07:22:28.540Z,11.70
2023-01-17T07:24:58.777Z,11.70
2023-01-17T07:27:27.839Z,12.90
2023-01-17T07:29:54.603Z,12.30
2023-01-17T07:32:21.556Z,12.30
2023-01-17T07:34:48.380Z,11.90
2023-01-17T07:37:15.398Z,11.50
2023-01-17T07:39:42.382Z,11.80
2023-01-17T07:42:09.327Z,12.50
2023-01-17T07:44:36.156Z,13.20
2023-01-17T07:47:04.358Z,12.30
2023-01-17T07:49:31.122Z,13.40
2023-01-17T07:51:57.992Z,13.70
2023-01-17T07:54:24.705Z,11.20
2023-01-17T07:56:51.370Z,11.50
2023-01-17T07:59:18.319Z,11.10
2023-01-17T08:01:45.122Z,11.50
2023-01-17T08:05:43.192Z,11.10
2023-01-17T08:08:10.139Z,11.60
2023-01-17T08:10:36.820Z,12.20
2023-01-17T08:13:03.493Z,12.10
2023-01-17T08:15:30.288Z,11.20
2023-01-17T08:17:58.040Z,11.60
2023-01-17T08:20:27.559Z,12.00
2023-01-17T08:22:57.798Z,12.30
2023-01-17T08:25:25.006Z,10.60
2023-01-17T08:27:51.874Z,11.70
2023-01-17T08:30:18.828Z,11.20
2023-01-17T08:32:45.891Z,10.70
2023-01-17T08:35:12.751Z,10.90
2023-01-17T08:37:39.546Z,12.10
2023-01-17T08:40:07.025Z,12.20
2023-01-17T08:42:39.313Z,13.30
2023-01-17T08:45:07.074Z,13.90
2023-01-17T08:47:34.259Z,14.20
2023-01-17T08:50:01.460Z,12.40
2023-01-17T08:52:28.559Z,12.30
2023-01-17T08:54:55.494Z,13.90
2023-01-17T08:57:22.294Z,13.10
2023-01-17T08:59:49.109Z,14.20
2023-01-17T09:02:17.150Z,13.60
2023-01-17T09:04:45.273Z,10.90
2023-01-17T09:07:12.071Z,12.90
2023-01-17T09:09:38.823Z,14.20
2023-01-17T09:12:05.605Z,13.00
2023-01-17T09:14:32.793Z,14.90
2023-01-17T09:16:59.650Z,13.90
2023-01-17T09:19:27.097Z,12.90
2023-01-17T09:21:53.786Z,14.00
2023-01-17T09:24:20.496Z,14.00
2023-01-17T09:26:47.169Z,14.50
2023-01-17T09:29:17.855Z,14.40
2023-01-17T09:31:47.249Z,14.00
2023-01-17T09:34:15.106Z,13.90
2023-01-17T09:36:42.144Z,14.00
2023-01-17T09:39:10.024Z,15.00
2023-01-17T09:42:00.261Z,14.30
2023-01-17T09:44:30.024Z,14.70
2023-01-17T09:47:00.086Z,13.90
2023-01-17T09:49:41.817Z,14.30
2023-01-17T09:52:09.991Z,14.00
2023-01-17T09:54:41.611Z,15.00
2023-01-17T09:57:20.784Z,14.30
2023-01-17T10:00:02.995Z,14.60
2023-01-17T10:02:47.069Z,12.40
2023-01-17T10:05:32.906Z,15.10
2023-01-17T10:08:23.710Z,14.30
2023-01-17T10:10:58.028Z,15.20
2023-01-17T10:13:48.490Z,17.00
2023-01-17T10:16:31.464Z,18.20
2023-01-17T10:19:12.194Z,24.10
2023-01-17T10:21:43.853Z,15.90
2023-01-17T10:24:21.161Z,18.40
2023-01-17T10:26:50.075Z,17.00
2023-01-17T10:29:21.298Z,15.50
2023-01-17T10:31:58.116Z,14.90
2023-01-17T10:34:38.053Z,15.50
2023-01-17T10:37:16.918Z,16.00
2023-01-17T10:39:44.898Z,16.80
2023-01-17T10:42:26.456Z,17.60
2023-01-17T10:45:02.054Z,17.30
2023-01-17T10:47:29.999Z,28.30
2023-01-17T10:49:58.473Z,27.30
2023-01-17T10:52:45.274Z,22.60
2023-01-17T10:55:24.407Z,23.00
2023-01-17T10:57:51.252Z,19.40
2023-01-17T11:00:35.824Z,19.80
2023-01-17T11:03:02.584Z,17.70
2023-01-17T11:05:31.158Z,19.80
2023-01-17T11:08:02.272Z,22.60
2023-01-17T11:10:58.120Z,24.30
2023-01-17T11:13:35.680Z,18.50
2023-01-17T11:16:18.047Z,18.20
2023-01-17T11:18:44.698Z,19.90
2023-01-17T11:21:18.977Z,23.00
2023-01-17T11:23:49.633Z,16.40
2023-01-17T11:26:30.667Z,18.00
2023-01-17T11:29:33.060Z,17.30
2023-01-17T11:32:22.468Z,16.00
2023-01-17T11:35:06.813Z,17.70
2023-01-17T11:37:34.667Z,17.20
2023-01-17T11:40:09.450Z,16.50
2023-01-17T11:42:37.725Z,15.60
2023-01-17T11:45:27.626Z,15.40
2023-01-17T11:48:12.697Z,16.20
2023-01-17T11:50:45.369Z,15.60
2023-01-17T11:53:15.462Z,16.60
2023-01-17T11:56:11.248Z,16.10
2023-01-17T11:58:40.135Z,15.60
2023-01-17T12:01:10.601Z,14.30
2023-01-17T12:04:19.884Z,15.50
2023-01-17T12:06:58.735Z,15.00
2023-01-17T12:09:28.767Z,14.20
2023-01-17T12:12:18.076Z,16.30
2023-01-17T12:15:07.035Z,16.20
2023-01-17T12:17:53.520Z,17.30
2023-01-17T12:20:32.887Z,16.10
2023-01-17T12:23:26.141Z,17.40
2023-01-17T12:26:05.749Z,23.80
2023-01-17T12:28:46.436Z,25.50
2023-01-17T12:31:26.224Z,18.60
2023-01-17T12:34:06.413Z,20.70
2023-01-17T12:36:41.989Z,19.40
2023-01-17T12:39:11.867Z,16.90
2023-01-17T12:41:53.312Z,15.20
2023-01-17T12:44:21.751Z,17.10
2023-01-17T12:46:50.845Z,18.80
2023-01-17T12:49:23.780Z,16.40
2023-01-17T12:51:57.960Z,16.50
2023-01-17T12:54:33.665Z,16.90
2023-01-17T12:57:06.396Z,16.80
2023-01-17T12:59:40.942Z,16.10
2023-01-17T13:02:20.291Z,18.10
2023-01-17T13:04:58.666Z,17.90
2023-01-17T13:08:18.233Z,17.20
2023-01-17T13:10:51.159Z,17.60
2023-01-17T13:13:26.385Z,16.00
2023-01-17T13:15:58.406Z,21.90
2023-01-17T13:18:27.130Z,19.40
2023-01-17T13:21:28.213Z,18.90
2023-01-17T13:24:06.164Z,18.80
2023-01-17T13:27:05.740Z,19.70
2023-01-17T13:30:15.361Z,17.90
2023-01-17T13:33:21.811Z,18.80
2023-01-17T13:35:55.309Z,19.20
2023-01-17T13:38:30.610Z,21.90
2023-01-17T13:41:04.089Z,18.40
2023-01-17T13:43:40.626Z,17.10
2023-01-17T13:46:07.406Z,18.60
2023-01-17T13:48:38.544Z,19.30
2023-01-17T13:51:09.460Z,16.80
2023-01-17T13:53:45.624Z,17.90
2023-01-17T13:56:13.268Z,17.60
2023-01-17T13:58:50.322Z,20.90
2023-01-17T14:01:23.271Z,18.40
2023-01-17T14:03:50.313Z,18.00
2023-01-17T14:06:35.576Z,17.80
2023-01-17T14:09:08.570Z,17.70
2023-01-17T14:11:35.955Z,19.00
2023-01-17T14:14:40.139Z,18.60
2023-01-17T14:17:33.160Z,18.20
2023-01-17T14:20:05.910Z,18.10
2023-01-17T14:22:36.584Z,18.90
2023-01-17T14:27:53.468Z,18.20
2023-01-17T14:30:33.728Z,18.90
2023-01-17T14:33:08.851Z,18.10
2023-01-17T14:35:37.767Z,16.60
2023-01-17T14:38:15.225Z,16.80
2023-01-17T14:40:43.262Z,17.40
2023-01-17T14:43:14.561Z,15.90
2023-01-17T14:45:41.452Z,18.20
2023-01-17T14:48:20.970Z,17.30
2023-01-17T14:50:48.837Z,17.70
2023-01-17T14:53:28.814Z,17.40
2023-01-17T14:55:56.881Z,17.60
2023-01-17T14:58:27.641Z,17.40
2023-01-17T15:01:02.432Z,18.00
2023-01-17T15:03:30.352Z,17.40
2023-01-17T15:05:57.790Z,16.40
2023-01-17T15:08:27.815Z,16.10
2023-01-17T15:11:03.048Z,17.10
2023-01-17T15:13:44.393Z,18.80
2023-01-17T15:16:20.447Z,17.30
2023-01-17T15:18:47.651Z,22.90
2023-01-17T15:21:19.703Z,24.30
2023-01-17T15:23:51.791Z,35.50
2023-01-17T15:26:20.268Z,61.20
2023-01-17T15:28:47.125Z,33.20
2023-01-17T15:31:19.955Z,40.30
2023-01-17T15:33:47.748Z,30.70
2023-01-17T15:36:20.918Z,22.60
2023-01-17T15:39:01.634Z,17.60
2023-01-17T15:41:31.725Z,19.70
2023-01-17T15:43:58.871Z,15.00
2023-01-17T15:46:30.010Z,15.70
2023-01-17T15:49:26.826Z,15.30
2023-01-17T15:52:08.886Z,14.90
2023-01-17T15:54:44.926Z,13.80
2023-01-17T15:57:19.267Z,16.00
2023-01-17T16:11:44.084Z,13.90
2023-01-17T16:14:10.738Z,13.40
2023-01-17T16:16:37.511Z,12.40
2023-01-17T16:19:04.295Z,13.30
2023-01-17T16:21:31.430Z,11.70
2023-01-17T16:23:59.227Z,14.10
2023-01-17T16:26:26.132Z,12.90
2023-01-17T16:28:52.949Z,12.80
2023-01-17T16:31:19.731Z,13.50
2023-01-17T16:33:48.968Z,13.10
2023-01-17T16:36:16.649Z,13.70
2023-01-17T16:38:44.320Z,12.30
2023-01-17T16:41:11.115Z,14.20
2023-01-17T16:43:37.798Z,13.40
2023-01-17T16:46:04.570Z,12.50
2023-01-17T16:48:31.338Z,13.10
2023-01-17T16:50:58.113Z,15.10
2023-01-17T16:53:26.355Z,14.20
2023-01-17T16:55:56.352Z,14.20
2023-01-17T16:58:23.067Z,15.20
2023-01-17T17:00:49.848Z,15.50
2023-01-17T17:03:17.483Z,14.40
2023-01-17T17:05:47.176Z,14.60
2023-01-17T17:08:15.324Z,13.90
2023-01-17T17:10:42.074Z,14.70
2023-01-17T17:13:08.818Z,12.90
2023-01-17T17:15:35.477Z,14.10
2023-01-17T17:18:02.580Z,14.00
2023-01-17T17:20:29.262Z,13.00
2023-01-17T17:22:56.000Z,14.00
2023-01-17T17:25:22.714Z,12.90
2023-01-17T17:27:49.418Z,14.50
2023-01-17T17:30:16.637Z,12.90
2023-01-17T17:32:45.776Z,12.10
2023-01-17T17:35:12.461Z,15.50
2023-01-17T17:37:39.242Z,13.20
2023-01-17T17:40:06.915Z,14.00
2023-01-17T17:42:33.732Z,14.60
2023-01-17T17:45:03.828Z,12.70
2023-01-17T17:47:32.081Z,13.20
2023-01-17T17:49:58.774Z,13.10
2023-01-17T17:52:25.690Z,13.10
2023-01-17T17:54:52.692Z,14.50
2023-01-17T17:57:19.400Z,13.90
2023-01-17T17:59:46.418Z,13.50
2023-01-17T18:02:17.548Z,13.40
2023-01-17T18:04:46.170Z,13.90
2023-01-17T18:07:13.123Z,14.30
2023-01-17T18:09:39.844Z,14.00
2023-01-17T18:12:07.022Z,15.40
2023-01-17T18:14:34.041Z,14.10
2023-01-17T18:17:00.749Z,12.30
2023-01-17T18:19:27.599Z,14.50
2023-01-17T18:21:54.324Z,14.20
2023-01-17T18:24:22.465Z,14.30
2023-01-17T18:26:53.510Z,18.00
2023-01-17T18:29:21.166Z,20.30
2023-01-17T18:31:50.115Z,19.50
2023-01-17T18:34:19.382Z,24.90
2023-01-17T18:36:46.011Z,18.10
2023-01-17T18:39:20.645Z,18.00
2023-01-17T18:44:14.131Z,20.80
2023-01-17T18:46:42.201Z,15.80
2023-01-17T18:49:12.512Z,19.80
2023-01-17T18:51:39.235Z,18.40
2023-01-17T18:54:07.331Z,20.60
2023-01-17T18:56:34.672Z,15.70
2023-01-17T18:59:02.280Z,16.60
2023-01-17T19:01:30.539Z,16.30
2023-01-17T19:03:58.484Z,27.70
2023-01-17T19:06:46.501Z,17.60
2023-01-17T19:09:13.783Z,15.70
2023-01-17T19:11:40.595Z,19.50
2023-01-17T19:14:07.323Z,18.30
2023-01-17T19:16:36.224Z,19.20
2023-01-17T19:19:05.520Z,16.30
2023-01-17T19:21:32.183Z,20.20
2023-01-17T19:23:58.934Z,19.00
2023-01-17T19:26:27.398Z,17.60
2023-01-17T19:28:56.165Z,13.00
2023-01-17T19:31:27.256Z,13.20
2023-01-17T19:33:56.927Z,14.90
2023-01-17T19:36:28.723Z,14.60
2023-01-17T19:39:04.344Z,13.00
2023-01-17T19:41:32.540Z,14.00
2023-01-17T19:44:04.342Z,10.50
2023-01-17T19:46:31.163Z,14.60
2023-01-17T19:48:58.004Z,14.20
2023-01-17T19:51:25.035Z,16.60
2023-01-17T19:53:53.533Z,15.50
2023-01-17T19:56:24.667Z,16.30
2023-01-17T19:58:52.174Z,20.40
2023-01-17T20:01:24.755Z,20.90
2023-01-17T20:03:51.775Z,20.70
2023-01-17T20:06:20.312Z,24.80
2023-01-17T20:08:46.982Z,22.40
2023-01-17T20:11:19.267Z,17.60
2023-01-17T20:13:46.763Z,19.00
2023-01-17T20:16:14.538Z,18.40
2023-01-17T20:18:41.556Z,15.40
2023-01-17T20:21:10.457Z,15.90
2023-01-17T20:23:42.977Z,17.80
2023-01-17T20:26:21.489Z,19.10
2023-01-17T20:28:49.237Z,18.40
2023-01-17T20:31:18.841Z,17.60
2023-01-17T20:33:46.964Z,18.30
2023-01-17T20:36:15.018Z,21.00
2023-01-17T20:38:44.902Z,15.90
2023-01-17T20:41:11.583Z,13.90
2023-01-17T20:43:38.253Z,14.20
2023-01-17T20:46:05.537Z,17.00
2023-01-17T20:48:32.559Z,17.90
2023-01-17T20:51:06.874Z,14.70
2023-01-17T20:53:34.603Z,16.00
2023-01-17T20:56:01.344Z,19.80
2023-01-17T20:58:28.105Z,22.50
2023-01-17T21:00:55.636Z,16.10
2023-01-17T21:03:23.909Z,17.90
2023-01-17T21:05:51.274Z,15.40
2023-01-17T21:09:29.988Z,16.60
2023-01-17T21:12:01.093Z,18.00
2023-01-17T21:14:28.998Z,16.40
2023-01-17T21:16:55.670Z,15.40
2023-01-17T21:19:22.958Z,14.50
2023-01-17T21:21:51.288Z,14.90
2023-01-17T21:24:19.586Z,13.90
2023-01-17T21:26:46.557Z,13.70
2023-01-17T21:29:16.145Z,14.40
2023-01-17T21:31:43.282Z,13.80
2023-01-17T21:34:11.084Z,13.60
2023-01-17T21:36:39.260Z,12.80
2023-01-17T21:39:07.738Z,10.60
2023-01-17T21:41:39.645Z,12.30
2023-01-17T21:44:08.721Z,13.70
2023-01-17T21:46:39.443Z,14.50
2023-01-17T21:49:07.086Z,17.50
2023-01-17T21:51:52.706Z,15.80
2023-01-17T21:54:42.637Z,14.70
2023-01-17T21:57:28.208Z,13.00
2023-01-17T21:59:54.881Z,12.80
2023-01-17T22:02:21.563Z,12.60
2023-01-17T22:04:48.343Z,11.20
2023-01-17T22:07:14.986Z,12.30
2023-01-17T22:09:41.652Z,11.30
2023-01-17T22:12:08.377Z,11.80
2023-01-17T22:14:35.036Z,12.10
2023-01-17T22:17:01.665Z,12.30
2023-01-17T22:19:28.302Z,11.50
2023-01-17T22:21:54.951Z,13.10
2023-01-17T22:24:21.650Z,10.60
2023-01-17T22:26:48.299Z,11.50
2023-01-17T22:29:18.778Z,10.70
2023-01-17T22:31:45.722Z,9.50
2023-01-17T22:34:14.033Z,11.30
2023-01-17T22:36:41.158Z,10.80
2023-01-17T22:39:09.238Z,10.60
2023-01-17T22:41:37.368Z,12.40
2023-01-17T22:44:05.523Z,13.20
2023-01-17T22:46:33.002Z,12.90
2023-01-17T22:48:59.716Z,12.50
2023-01-17T22:51:27.698Z,11.90
2023-01-17T22:53:56.445Z,10.30
2023-01-17T22:56:27.971Z,10.80
2023-01-17T22:58:54.642Z,11.70
2023-01-17T23:01:26.054Z,11.30
2023-01-17T23:03:57.202Z,12.20
2023-01-17T23:06:25.830Z,12.60
2023-01-17T23:08:54.400Z,12.10
2023-01-17T23:11:40.704Z,11.70
2023-01-17T23:14:26.572Z,12.30
2023-01-17T23:17:12.665Z,11.20
2023-01-17T23:19:40.875Z,10.30
2023-01-17T23:22:15.747Z,12.00
2023-01-17T23:24:55.058Z,11.60
2023-01-17T23:27:45.033Z,11.80
2023-01-17T23:30:18.745Z,11.90
2023-01-17T23:32:47.666Z,11.10
2023-01-17T23:35:15.189Z,10.70
2023-01-17T23:38:00.690Z,12.00
2023-01-17T23:40:27.544Z,11.90
2023-01-17T23:43:13.013Z,12.80
2023-01-17T23:45:39.746Z,11.30
2023-01-17T23:48:09.558Z,11.10
2023-01-17T23:50:40.042Z,12.20
2023-01-17T23:53:07.255Z,11.30
2023-01-17T23:55:38.589Z,11.50
2023-01-17T23:58:12.483Z,12.30
